createdAt,value
2022-09-01T00:01:30.491Z,1.10
2022-09-01T00:04:03.276Z,1.15
2022-09-01T00:06:32.735Z,1.23
2022-09-01T00:09:01.910Z,1.40
2022-09-01T00:11:29.724Z,1.02
2022-09-01T00:13:57.532Z,1.20
2022-09-01T00:16:24.757Z,1.08
2022-09-01T00:18:53.427Z,1.10
2022-09-01T00:21:24.134Z,1.40
2022-09-01T00:23:51.342Z,1.27
2022-09-01T00:26:18.184Z,1.13
2022-09-01T00:28:44.870Z,1.52
2022-09-01T00:31:12.859Z,1.30
2022-09-01T00:33:39.276Z,1.27
2022-09-01T00:36:05.825Z,1.33
2022-09-01T00:38:33.601Z,1.23
2022-09-01T00:41:01.116Z,1.10
2022-09-01T00:43:46.541Z,1.30
2022-09-01T00:46:24.903Z,1.10
2022-09-01T00:49:03.096Z,1.45
2022-09-01T00:51:33.258Z,0.97
2022-09-01T00:54:01.612Z,1.30
2022-09-01T00:56:30.425Z,1.20
2022-09-01T00:58:57.234Z,1.10
2022-09-01T01:01:23.992Z,1.20
2022-09-01T01:03:50.511Z,1.10
2022-09-01T01:06:20.018Z,1.15
2022-09-01T01:09:00.767Z,1.10
2022-09-01T01:11:32.357Z,1.17
2022-09-01T01:14:00.789Z,1.10
2022-09-01T01:16:29.455Z,1.00
2022-09-01T01:18:55.938Z,1.00
2022-09-01T01:21:43.402Z,1.23
2022-09-01T01:24:25.124Z,1.02
2022-09-01T01:26:52.724Z,1.00
2022-09-01T01:29:19.941Z,1.30
2022-09-01T01:31:50.098Z,1.02
2022-09-01T01:34:18.227Z,1.20
2022-09-01T01:36:45.174Z,1.10
2022-09-01T01:39:18.467Z,1.20
2022-09-01T01:41:48.758Z,1.10
2022-09-01T01:44:18.431Z,0.90
2022-09-01T01:46:50.257Z,0.93
2022-09-01T01:49:19.972Z,1.10
2022-09-01T01:51:48.914Z,1.15
2022-09-01T01:54:17.214Z,1.30
2022-09-01T01:56:43.621Z,1.20
2022-09-01T01:59:13.839Z,1.42
2022-09-01T02:01:42.807Z,1.35
2022-09-01T02:04:11.125Z,1.23
2022-09-01T02:06:41.327Z,1.30
2022-09-01T02:09:08.723Z,1.35
2022-09-01T02:11:37.824Z,1.08
2022-09-01T02:14:06.616Z,1.25
2022-09-01T02:16:34.591Z,1.20
2022-09-01T02:19:02.635Z,1.10
2022-09-01T02:21:29.289Z,1.20
2022-09-01T02:24:01.058Z,1.30
2022-09-01T02:26:38.546Z,1.40
2022-09-01T02:29:09.078Z,1.60
2022-09-01T02:31:40.266Z,1.40
2022-09-01T02:34:13.852Z,1.55
2022-09-01T02:36:44.237Z,1.25
2022-09-01T02:39:11.502Z,1.55
2022-09-01T02:41:39.363Z,1.40
2022-09-01T02:44:11.549Z,1.33
2022-09-01T02:46:47.594Z,1.27
2022-09-01T02:49:19.999Z,1.30
2022-09-01T02:51:49.756Z,1.45
2022-09-01T02:54:19.188Z,1.40
2022-09-01T02:56:49.790Z,1.47
2022-09-01T02:59:21.660Z,1.40
2022-09-01T03:01:53.787Z,1.70
2022-09-01T03:04:22.288Z,1.60
2022-09-01T03:06:50.797Z,1.60
2022-09-01T03:09:18.335Z,1.50
2022-09-01T03:11:47.693Z,1.45
2022-09-01T03:14:14.247Z,1.55
2022-09-01T03:16:41.173Z,1.50
2022-09-01T03:19:09.067Z,1.50
2022-09-01T03:21:40.767Z,1.30
2022-09-01T03:24:14.713Z,1.55
2022-09-01T03:26:42.700Z,1.77
2022-09-01T03:29:09.381Z,1.42
2022-09-01T03:31:36.539Z,1.75
2022-09-01T03:34:05.901Z,1.40
2022-09-01T03:36:33.415Z,1.50
2022-09-01T03:39:01.156Z,1.40
2022-09-01T03:41:30.776Z,1.60
2022-09-01T03:44:00.325Z,1.50
2022-09-01T03:46:34.269Z,1.70
2022-09-01T03:49:05.849Z,1.77
2022-09-01T03:51:32.520Z,1.90
2022-09-01T03:53:59.822Z,1.75
2022-09-01T03:56:28.719Z,1.58
2022-09-01T03:58:58.151Z,1.70
2022-09-01T04:01:27.023Z,1.90
2022-09-01T04:03:53.688Z,1.80
2022-09-01T04:06:22.051Z,1.80
2022-09-01T04:08:48.509Z,1.77
2022-09-01T04:11:23.941Z,1.73
2022-09-01T04:13:50.911Z,1.63
2022-09-01T04:16:43.049Z,1.90
2022-09-01T04:19:19.877Z,1.80
2022-09-01T04:21:51.631Z,1.83
2022-09-01T04:24:19.133Z,2.00
2022-09-01T04:26:49.390Z,1.90
2022-09-01T04:29:18.744Z,2.42
2022-09-01T04:31:52.045Z,1.98
2022-09-01T04:34:18.556Z,2.13
2022-09-01T04:36:45.651Z,2.10
2022-09-01T04:39:14.735Z,2.17
2022-09-01T04:41:46.123Z,2.55
2022-09-01T04:44:16.765Z,2.83
2022-09-01T04:46:46.348Z,2.60
2022-09-01T04:49:19.242Z,2.60
2022-09-01T04:51:53.247Z,2.67
2022-09-01T04:54:22.752Z,3.08
2022-09-01T04:56:51.423Z,3.05
2022-09-01T04:59:20.640Z,3.13
2022-09-01T05:01:50.254Z,3.50
2022-09-01T05:04:22.508Z,3.28
2022-09-01T05:06:53.965Z,3.30
2022-09-01T05:09:20.705Z,3.28
2022-09-01T05:11:49.931Z,3.50
2022-09-01T05:14:19.054Z,3.40
2022-09-01T05:16:46.376Z,3.53
2022-09-01T05:19:17.519Z,3.45
2022-09-01T05:21:46.084Z,3.33
2022-09-01T05:24:18.981Z,3.50
2022-09-01T05:26:47.462Z,3.57
2022-09-01T05:29:17.665Z,3.35
2022-09-01T05:31:50.461Z,3.65
2022-09-01T05:34:26.278Z,3.50
2022-09-01T05:36:55.502Z,3.13
2022-09-01T05:39:21.971Z,3.07
2022-09-01T05:41:49.266Z,2.90
2022-09-01T05:44:16.995Z,2.83
2022-09-01T05:46:44.458Z,2.67
2022-09-01T05:49:13.780Z,2.88
2022-09-01T05:51:45.360Z,2.40
2022-09-01T05:54:12.550Z,2.20
2022-09-01T05:56:43.937Z,1.95
2022-09-01T05:59:27.061Z,1.60
2022-09-01T06:01:54.619Z,1.60
2022-09-01T06:04:22.966Z,1.27
2022-09-01T06:07:07.836Z,1.10
2022-09-01T06:09:43.608Z,1.38
2022-09-01T06:12:17.291Z,1.35
2022-09-01T06:14:45.419Z,1.40
2022-09-01T06:17:11.853Z,1.20
2022-09-01T06:19:40.000Z,1.20
2022-09-01T06:22:06.433Z,1.65
2022-09-01T06:24:34.194Z,1.20
2022-09-01T06:27:01.121Z,1.27
2022-09-01T06:29:28.442Z,1.20
2022-09-01T06:31:54.871Z,1.25
2022-09-01T06:34:21.498Z,1.40
2022-09-01T06:36:49.462Z,1.25
2022-09-01T06:39:20.366Z,1.40
2022-09-01T06:41:49.664Z,1.20
2022-09-01T06:44:22.298Z,1.50
2022-09-01T06:46:50.313Z,1.27
2022-09-01T06:49:17.040Z,1.50
2022-09-01T06:51:44.624Z,1.40
2022-09-01T06:54:14.825Z,1.60
2022-09-01T06:56:45.049Z,1.40
2022-09-01T06:59:19.476Z,1.65
2022-09-01T07:01:49.010Z,1.20
2022-09-01T07:04:20.137Z,1.30
2022-09-01T07:12:25.772Z,1.25
2022-09-01T07:17:42.341Z,1.38
2022-09-01T07:20:26.790Z,1.50
2022-09-01T07:23:10.186Z,1.30
2022-09-01T07:26:01.407Z,1.75
2022-09-01T07:28:37.626Z,1.55
2022-09-01T07:33:55.648Z,1.50
2022-09-01T07:47:56.704Z,1.20
2022-09-01T07:53:18.460Z,1.88
2022-09-01T07:55:52.866Z,1.58
2022-09-01T07:58:22.048Z,1.80
2022-09-01T08:00:49.786Z,1.50
2022-09-01T08:03:18.876Z,1.55
2022-09-01T08:05:47.127Z,1.80
2022-09-01T08:08:22.715Z,1.67
2022-09-01T08:10:53.477Z,1.88
2022-09-01T08:13:21.787Z,1.80
2022-09-01T08:18:50.780Z,1.80
2022-09-01T08:21:18.880Z,1.80
2022-09-01T08:23:45.444Z,1.90
2022-09-01T08:26:14.878Z,1.70
2022-09-01T08:28:46.040Z,1.63
2022-09-01T08:31:15.912Z,1.90
2022-09-01T08:33:43.539Z,1.92
2022-09-01T08:36:12.494Z,1.83
2022-09-01T08:38:40.523Z,2.10
2022-09-01T08:41:35.010Z,1.85
2022-09-01T08:44:16.733Z,2.08
2022-09-01T08:46:44.310Z,1.90
2022-09-01T08:49:26.062Z,2.00
2022-09-01T08:52:15.884Z,1.70
2022-09-01T08:54:49.773Z,2.10
2022-09-01T08:57:33.412Z,2.15
2022-09-01T09:00:00.183Z,1.73
2022-09-01T09:02:37.840Z,2.13
2022-09-01T09:05:22.411Z,1.40
2022-09-01T09:08:20.809Z,1.50
2022-09-01T09:11:00.937Z,1.90
2022-09-01T09:13:55.988Z,1.95
2022-09-01T09:16:28.336Z,1.92
2022-09-01T09:19:01.027Z,1.97
2022-09-01T09:21:33.283Z,2.10
2022-09-01T09:24:47.515Z,2.20
2022-09-01T09:27:47.337Z,2.83
2022-09-01T09:30:24.694Z,2.47
2022-09-01T09:33:31.029Z,2.03
2022-09-01T09:35:47.384Z,2.10
2022-09-01T09:38:21.786Z,2.33
2022-09-01T09:41:16.073Z,2.13
2022-09-01T09:43:59.002Z,2.63
2022-09-01T09:46:31.815Z,2.20
2022-09-01T09:49:34.566Z,1.95
2022-09-01T09:52:03.068Z,1.65
2022-09-01T09:54:33.309Z,1.20
2022-09-01T09:57:09.016Z,1.67
2022-09-01T09:59:59.239Z,2.00
2022-09-01T10:02:39.895Z,2.03
2022-09-01T10:05:24.971Z,2.20
2022-09-01T10:07:52.903Z,2.05
2022-09-01T10:10:39.630Z,2.05
2022-09-01T10:13:17.992Z,2.50
2022-09-01T10:15:51.330Z,2.28
2022-09-01T10:18:29.100Z,2.28
2022-09-01T10:21:04.314Z,2.05
2022-09-01T10:23:34.541Z,2.47
2022-09-01T10:26:11.964Z,2.07
2022-09-01T10:28:50.000Z,2.00
2022-09-01T10:31:17.875Z,1.90
2022-09-01T10:33:44.573Z,2.30
2022-09-01T10:36:12.175Z,2.05
2022-09-01T10:38:39.272Z,2.30
2022-09-01T10:41:13.992Z,2.35
2022-09-01T10:43:51.330Z,2.13
2022-09-01T10:46:26.106Z,2.10
2022-09-01T10:48:56.639Z,2.30
2022-09-01T10:51:36.017Z,2.20
2022-09-01T10:54:05.716Z,2.38
2022-09-01T10:56:52.613Z,1.70
2022-09-01T10:59:43.443Z,1.25
2022-09-01T11:05:04.823Z,0.97
2022-09-01T11:07:57.953Z,0.90
2022-09-01T11:10:34.190Z,0.90
2022-09-01T11:13:10.300Z,0.77
2022-09-01T11:15:42.773Z,0.90
2022-09-01T11:18:31.466Z,0.53
2022-09-01T11:21:23.254Z,0.70
2022-09-01T11:23:49.671Z,0.57
2022-09-01T11:26:35.479Z,0.60
2022-09-01T11:29:01.898Z,0.60
2022-09-01T11:31:31.112Z,0.70
2022-09-01T11:33:58.278Z,0.40
2022-09-01T11:36:37.449Z,0.43
2022-09-01T11:39:03.856Z,0.52
2022-09-01T11:41:40.521Z,0.70
2022-09-01T11:44:27.869Z,0.60
2022-09-01T11:47:01.970Z,1.10
2022-09-01T11:49:33.292Z,0.73
2022-09-01T11:52:01.606Z,0.70
2022-09-01T11:54:30.058Z,0.75
2022-09-01T11:56:56.489Z,0.80
2022-09-01T11:59:36.744Z,0.70
2022-09-01T12:02:05.259Z,0.60
2022-09-01T12:04:37.901Z,0.82
2022-09-01T12:07:07.626Z,0.90
2022-09-01T12:09:43.430Z,0.83
2022-09-01T12:12:34.093Z,1.10
2022-09-01T12:15:06.403Z,1.27
2022-09-01T12:17:34.629Z,0.90
2022-09-01T12:20:20.044Z,1.00
2022-09-01T12:22:46.960Z,1.20
2022-09-01T12:25:26.206Z,1.13
2022-09-01T12:27:53.323Z,1.30
2022-09-01T12:30:21.074Z,0.90
2022-09-01T12:32:48.239Z,0.60
2022-09-01T12:35:25.962Z,0.90
2022-09-01T12:38:12.804Z,1.10
2022-09-01T12:40:39.306Z,1.30
2022-09-01T12:43:05.731Z,1.00
2022-09-01T12:45:47.155Z,1.20
2022-09-01T12:48:30.021Z,1.00
2022-09-01T12:50:59.759Z,1.20
2022-09-01T12:53:30.642Z,1.40
2022-09-01T12:56:01.881Z,1.30
2022-09-01T12:58:30.188Z,0.80
2022-09-01T13:01:10.163Z,1.00
2022-09-01T13:04:03.316Z,1.00
2022-09-01T13:06:29.715Z,1.00
2022-09-01T13:08:56.724Z,1.20
2022-09-01T13:11:23.301Z,1.17
2022-09-01T13:13:49.691Z,0.90
2022-09-01T13:16:16.137Z,0.93
2022-09-01T13:21:31.249Z,0.73
2022-09-01T13:23:57.777Z,0.80
2022-09-01T13:26:24.351Z,0.80
2022-09-01T13:28:51.553Z,0.70
2022-09-01T13:31:34.372Z,0.82
2022-09-01T13:34:10.815Z,0.70
2022-09-01T13:36:51.469Z,0.77
2022-09-01T13:39:20.420Z,0.70
2022-09-01T13:41:47.461Z,0.60
2022-09-01T13:44:14.108Z,0.68
2022-09-01T13:52:14.458Z,0.60
2022-09-01T13:54:41.048Z,0.50
2022-09-01T13:57:07.433Z,0.80
2022-09-01T13:59:33.845Z,0.50
2022-09-01T14:02:01.456Z,0.60
2022-09-01T14:04:27.976Z,0.60
2022-09-01T14:06:55.058Z,0.70
2022-09-01T14:09:21.880Z,0.60
2022-09-01T14:11:48.589Z,0.45
2022-09-01T14:14:14.980Z,0.50
2022-09-01T14:16:41.486Z,0.70
2022-09-01T14:19:07.931Z,0.68
2022-09-01T14:21:34.393Z,0.55
2022-09-01T14:24:01.226Z,0.60
2022-09-01T14:26:28.138Z,0.55
2022-09-01T14:28:55.010Z,0.70
2022-09-01T14:31:22.474Z,0.57
2022-09-01T14:33:49.757Z,0.50
2022-09-01T14:36:22.281Z,0.60
2022-09-01T14:38:50.486Z,0.50
2022-09-01T14:41:21.877Z,0.60
2022-09-01T14:43:49.917Z,0.70
2022-09-01T14:46:16.952Z,0.70
2022-09-01T14:48:43.499Z,0.70
2022-09-01T14:51:17.952Z,0.40
2022-09-01T14:53:44.321Z,0.73
2022-09-01T14:56:10.735Z,0.50
2022-09-01T14:58:37.222Z,0.50
2022-09-01T15:01:17.351Z,0.65
2022-09-01T15:03:50.032Z,1.70
2022-09-01T15:06:18.847Z,1.47
2022-09-01T15:08:45.925Z,1.30
2022-09-01T15:11:20.458Z,0.80
2022-09-01T15:13:47.387Z,0.60
2022-09-01T15:16:22.544Z,0.60
2022-09-01T15:18:49.279Z,0.50
2022-09-01T15:21:20.307Z,0.50
2022-09-01T15:23:48.470Z,0.50
2022-09-01T15:26:16.937Z,0.50
2022-09-01T15:28:47.062Z,0.60
2022-09-01T15:31:15.047Z,0.60
2022-09-01T15:33:43.523Z,0.70
2022-09-01T15:36:16.338Z,0.60
2022-09-01T15:38:42.919Z,0.60
2022-09-01T15:41:09.588Z,0.55
2022-09-01T15:43:36.341Z,0.47
2022-09-01T15:46:07.223Z,0.50
2022-09-01T15:48:33.821Z,0.60
2022-09-01T15:51:21.959Z,0.50
2022-09-01T15:53:54.391Z,0.50
2022-09-01T15:56:20.960Z,0.50
2022-09-01T15:59:00.808Z,0.50
2022-09-01T16:01:31.327Z,0.50
2022-09-01T16:03:57.881Z,0.50
2022-09-01T16:06:24.342Z,0.50
2022-09-01T16:08:57.578Z,0.50
2022-09-01T16:11:25.815Z,0.50
2022-09-01T16:13:54.626Z,0.45
2022-09-01T16:16:54.248Z,0.35
2022-09-01T16:19:37.286Z,0.50
2022-09-01T16:22:09.976Z,0.50
2022-09-01T16:24:45.719Z,0.52
2022-09-01T16:27:22.301Z,0.50
2022-09-01T16:29:53.052Z,0.50
2022-09-01T16:32:21.941Z,0.60
2022-09-01T16:34:48.892Z,0.33
2022-09-01T16:37:33.913Z,0.43
2022-09-01T16:40:32.377Z,0.50
2022-09-01T16:43:11.355Z,0.50
2022-09-01T16:45:45.989Z,0.40
2022-09-01T16:48:27.552Z,0.50
2022-09-01T16:51:22.736Z,0.50
2022-09-01T16:54:20.851Z,0.40
2022-09-01T16:56:59.324Z,0.40
2022-09-01T16:59:55.582Z,0.52
2022-09-01T17:02:42.150Z,0.40
2022-09-01T17:05:30.174Z,0.50
2022-09-01T17:08:18.499Z,0.60
2022-09-01T17:10:55.041Z,0.55
2022-09-01T17:13:40.048Z,0.45
2022-09-01T17:16:21.645Z,0.60
2022-09-01T17:19:04.802Z,0.55
2022-09-01T17:21:34.692Z,0.60
2022-09-01T17:24:12.478Z,0.60
2022-09-01T17:26:41.186Z,0.55
2022-09-01T17:29:29.348Z,0.60
2022-09-01T17:32:34.723Z,1.00
2022-09-01T17:35:23.030Z,1.00
2022-09-01T17:38:04.658Z,0.88
2022-09-01T17:40:42.114Z,0.75
2022-09-01T17:43:18.101Z,0.57
2022-09-01T17:46:04.219Z,0.60
2022-09-01T17:48:54.254Z,0.85
2022-09-01T17:51:50.109Z,0.70
2022-09-01T17:54:28.567Z,0.55
2022-09-01T17:57:00.561Z,0.60
2022-09-01T17:59:41.197Z,0.63
2022-09-01T18:02:19.217Z,0.57
2022-09-01T18:04:55.993Z,0.60
2022-09-01T18:07:37.501Z,0.77
2022-09-01T18:10:07.886Z,0.60
2022-09-01T18:12:37.901Z,0.70
2022-09-01T18:15:23.563Z,0.63
2022-09-01T18:18:04.452Z,0.52
2022-09-01T18:20:41.552Z,0.70
2022-09-01T18:23:18.613Z,0.63
2022-09-01T18:25:50.988Z,0.50
2022-09-01T18:28:17.415Z,0.70
2022-09-01T18:31:08.770Z,0.77
2022-09-01T18:33:51.051Z,0.70
2022-09-01T18:36:42.763Z,0.90
2022-09-01T18:39:18.663Z,0.70
2022-09-01T18:42:13.865Z,0.90
2022-09-01T18:44:49.327Z,0.65
2022-09-01T18:47:18.923Z,0.70
2022-09-01T18:50:12.077Z,0.80
2022-09-01T18:52:52.605Z,0.90
2022-09-01T18:55:26.051Z,1.58
2022-09-01T18:57:56.208Z,1.30
2022-09-01T19:00:52.154Z,1.50
2022-09-01T19:03:46.105Z,1.60
2022-09-01T19:06:26.197Z,1.70
2022-09-01T19:09:01.614Z,1.38
2022-09-01T19:11:52.312Z,1.50
2022-09-01T19:14:30.091Z,1.50
2022-09-01T19:17:16.105Z,1.30
2022-09-01T19:19:48.781Z,1.50
2022-09-01T19:22:20.404Z,1.00
2022-09-01T19:25:17.581Z,1.20
2022-09-01T19:27:59.526Z,1.10
2022-09-01T19:30:26.009Z,0.80
2022-09-01T19:32:52.997Z,1.20
2022-09-01T19:35:19.479Z,0.90
2022-09-01T19:37:50.929Z,1.00
2022-09-01T19:40:25.419Z,0.85
2022-09-01T19:42:57.243Z,0.90
2022-09-01T19:45:36.304Z,1.10
2022-09-01T19:48:20.131Z,1.00
2022-09-01T19:51:15.052Z,1.10
2022-09-01T19:53:52.696Z,1.20
2022-09-01T19:56:24.731Z,0.93
2022-09-01T19:59:18.935Z,1.10
2022-09-01T20:01:57.945Z,1.10
2022-09-01T20:04:48.434Z,0.95
2022-09-01T20:07:43.056Z,1.00
2022-09-01T20:10:37.591Z,1.00
2022-09-01T20:13:22.861Z,1.08
2022-09-01T20:16:31.711Z,1.02
2022-09-01T20:19:16.266Z,1.10
2022-09-01T20:21:45.833Z,1.10
2022-09-01T20:24:30.473Z,1.13
2022-09-01T20:27:15.680Z,1.10
2022-09-01T20:29:59.139Z,1.30
2022-09-01T20:32:40.064Z,1.00
2022-09-01T20:35:21.005Z,1.00
2022-09-01T20:37:57.279Z,1.20
2022-09-01T20:40:30.734Z,1.20
2022-09-01T20:43:25.492Z,1.40
2022-09-01T20:45:52.794Z,1.10
2022-09-01T20:48:25.179Z,1.30
2022-09-01T20:51:07.808Z,1.30
2022-09-01T20:53:49.448Z,1.20
2022-09-01T20:56:21.339Z,1.20
2022-09-01T20:58:59.143Z,1.40
2022-09-01T21:01:36.562Z,1.40
2022-09-01T21:04:31.582Z,1.27
2022-09-01T21:07:17.989Z,1.40
2022-09-01T21:09:56.237Z,1.50
2022-09-01T21:12:39.314Z,1.33
2022-09-01T21:15:21.915Z,1.33
2022-09-01T21:18:03.479Z,1.70
2022-09-01T21:20:56.553Z,1.60
2022-09-01T21:23:23.605Z,1.70
2022-09-01T21:25:50.128Z,1.88
2022-09-01T21:28:20.111Z,1.40
2022-09-01T21:30:50.734Z,1.57
2022-09-01T21:33:17.231Z,1.80
2022-09-01T21:35:43.659Z,1.70
2022-09-01T21:38:10.155Z,1.90
2022-09-01T21:40:36.601Z,1.80
2022-09-01T21:43:08.175Z,1.70
2022-09-01T21:45:37.743Z,1.80
2022-09-01T21:48:07.223Z,1.73
2022-09-01T21:50:34.227Z,1.80
2022-09-01T21:53:01.100Z,1.60
2022-09-01T21:55:27.827Z,1.80
2022-09-01T21:57:55.408Z,1.65
2022-09-01T22:00:25.364Z,1.73
2022-09-01T22:02:53.662Z,1.60
2022-09-01T22:05:20.846Z,1.52
2022-09-01T22:07:47.727Z,1.63
2022-09-01T22:10:17.878Z,1.50
2022-09-01T22:12:45.783Z,1.80
2022-09-01T22:15:14.470Z,1.60
2022-09-01T22:17:41.060Z,1.50
2022-09-01T22:20:09.865Z,1.60
2022-09-01T22:22:36.855Z,1.73
2022-09-01T22:25:06.168Z,1.58
2022-09-01T22:27:32.563Z,1.70
2022-09-01T22:29:58.981Z,1.70
2022-09-01T22:32:26.897Z,1.80
2022-09-01T22:34:56.269Z,1.52
2022-09-01T22:37:23.056Z,1.80
2022-09-01T22:39:49.773Z,1.65
2022-09-01T22:42:16.199Z,1.95
2022-09-01T22:44:42.560Z,1.50
2022-09-01T22:47:08.912Z,1.70
2022-09-01T22:49:35.380Z,1.60
2022-09-01T22:52:01.935Z,1.85
2022-09-01T22:54:28.674Z,1.70
2022-09-01T22:56:56.338Z,1.70
2022-09-01T22:59:25.919Z,1.70
2022-09-01T23:01:53.008Z,1.92
2022-09-01T23:04:19.734Z,1.90
2022-09-01T23:06:49.456Z,1.50
2022-09-01T23:09:17.691Z,1.67
2022-09-01T23:11:45.168Z,1.63
2022-09-01T23:14:12.012Z,1.60
2022-09-01T23:16:38.806Z,1.90
2022-09-01T23:19:05.485Z,2.00
2022-09-01T23:21:34.058Z,1.83
2022-09-01T23:24:00.805Z,1.83
2022-09-01T23:26:29.092Z,2.00
2022-09-01T23:28:56.153Z,1.70
2022-09-01T23:31:26.375Z,1.70
2022-09-01T23:33:53.123Z,1.80
2022-09-01T23:36:23.708Z,1.90
2022-09-01T23:38:51.820Z,1.70
2022-09-01T23:41:23.174Z,1.95
2022-09-01T23:43:51.038Z,2.13
2022-09-01T23:46:23.614Z,2.20
2022-09-01T23:48:50.850Z,2.17
2022-09-01T23:51:20.641Z,2.00
2022-09-01T23:53:47.996Z,1.90
2022-09-01T23:56:20.803Z,1.90
2022-09-01T23:58:48.778Z,1.90
